FW1418 Weather Reports


Display with metric or nautical units.
time (UTC)temp
F
wind
direction
speed
MPH
gust
MPH
rain 1hr
in
rain 24hr
in
rain mn
in
humidity
%
barometer
mb
20210120170133 20 200 7.0 15.0 0.00 0.01 0.00 80 1019.3
20210120164741 19 164 7.0 12.0 0.00 0.01 0.00 80 1019.6
20210120163129 19 176 10.0 18.0 0.00 0.01 0.00 79 1020.0
20210120161624 19 173 4.0 12.0 0.00 0.01 0.00 80 1020.4
20210120160153 18 243 6.0 14.0 0.00 0.01 0.00 81 1020.6
20210120154631 18 61 5.0 13.0 0.00 0.01 0.00 81 1020.8
20210120153052 18 242 5.0 12.0 0.00 0.01 0.00 82 1020.7
20210120151652 18 198 5.0 12.0 0.00 0.01 0.00 82 1020.7
20210120150116 17 171 7.0 11.0 0.00 0.01 0.00 81 1020.6
20210120144601 17 175 3.0 9.0 0.00 0.01 0.00 82 1020.6
20210120143041 17 209 4.0 9.0 0.00 0.01 0.00 81 1020.7
20210120141722 17 197 5.0 11.0 0.00 0.01 0.00 81 1020.5
20210120140118 17 215 5.0 14.0 0.00 0.01 0.00 80 1020.5
20210120134605 17 200 3.0 8.0 0.00 0.01 0.00 82 1020.5
20210120133034 17 225 2.0 9.0 0.00 0.01 0.00 81 1020.5
20210120131625 17 205 4.0 11.0 0.00 0.01 0.00 79 1020.4
20210120130041 17 172 5.0 12.0 0.00 0.01 0.00 79 1020.3
20210120124606 17 206 3.0 10.0 0.00 0.01 0.00 79 1020.5
20210120123116 18 196 2.0 6.0 0.00 0.01 0.00 79 1020.8
20210120121630 18 189 2.0 6.0 0.00 0.01 0.00 81 1020.8
20210120120052 18 188 3.0 8.0 0.00 0.01 0.00 80 1020.7
20210120114620 18 227 4.0 8.0 0.00 0.01 0.00 78 1020.7
20210120113041 18 219 2.0 4.0 0.00 0.01 0.00 78 1020.6
20210120111601 18 248 4.0 8.0 0.00 0.01 0.00 77 1020.8
20210120110056 19 254 6.0 13.0 0.00 0.01 0.00 77 1020.9
20210120104524 19 325 6.0 12.0 0.00 0.01 0.00 77 1020.8
20210120103052 19 253 3.0 5.0 0.00 0.01 0.00 77 1020.8
20210120101546 19 221 2.0 6.0 0.00 0.01 0.00 76 1021.0
20210120100054 19 277 3.0 7.0 0.00 0.01 0.00 75 1021.0
20210120094537 19 315 3.0 10.0 0.00 0.01 0.00 75 1020.9
20210120093036 19 306 5.0 11.0 0.00 0.01 0.00 75 1020.8
20210120091522 18 5 2.0 10.0 0.00 0.01 0.00 74 1020.9
20210120090046 19 273 4.0 11.0 0.00 0.01 0.00 73 1021.2
20210120084524 19 313 2.0 8.0 0.00 0.01 0.00 76 1021.0
20210120083027 19 296 2.0 8.0 0.00 0.01 0.00 76 1020.8
20210120081522 19 285 3.0 8.0 0.00 0.01 0.00 75 1020.4
20210120080221 19 279 5.0 12.0 0.00 0.01 0.00 74 1020.3
20210120074842 19 213 3.0 13.0 0.00 0.01 0.00 75 1020.3
20210120073212 19 334 4.0 10.0 0.00 0.01 0.00 75 1020.2
20210120071629 19 360 3.0 15.0 0.00 0.01 0.00 74 1020.0
20210120070243 19 299 2.0 9.0 0.00 0.01 0.00 75 1019.8
20210120064750 19 323 2.0 9.0 0.00 0.01 0.00 73 1019.7
20210120063120 20 337 1.0 9.0 0.00 0.01 0.00 73 1019.6
20210120061634 20 355 2.0 8.0 0.00 0.01 0.00 72 1019.5
20210120060136 19 292 2.0 9.0 0.00 0.01 0.00 71 1019.4
20210120054545 20 321 3.0 10.0 0.00 0.01 0.00 71 1019.2
20210120053111 19 56 4.0 13.0 0.00 0.01 0.00 71 1019.2
20210120051542 20 302 3.0 8.0 0.00 0.01 0.00 73 1019.1
20210120050117 20 311 3.0 6.0 0.00 0.01 0.01 73 1019.0
20210120044617 20 325 3.0 10.0 0.00 0.01 0.01 75 1019.0
20210120043051 20 350 3.0 14.0 0.00 0.01 0.01 75 1019.0
20210120041630 20 338 3.0 12.0 0.00 0.01 0.01 76 1019.1
20210120040141 20 286 7.0 17.0 0.00 0.01 0.01 77 1019.2
20210120034602 20 321 6.0 13.0 0.00 0.01 0.01 75 1019.0
20210120033047 20 17 5.0 13.0 0.00 0.01 0.01 78 1018.9
20210120031558 20 321 4.0 11.0 0.00 0.01 0.01 82 1019.0
20210120030110 20 277 3.0 9.0 0.00 0.01 0.01 86 1018.9
20210120024608 20 319 2.0 12.0 0.00 0.01 0.01 82 1018.9
20210120023033 20 317 6.0 12.0 0.00 0.01 0.01 87 1018.9
20210120021531 20 349 5.0 11.0 0.00 0.01 0.01 91 1018.8
20210120020026 20 342 2.0 10.0 0.00 0.01 0.01 91 1018.8
20210120014532 20 316 8.0 15.0 0.00 0.01 0.01 90 1018.7
20210120013032 21 274 3.0 11.0 0.01 0.01 0.01 89 1018.8
20210120011526 21 296 6.0 12.0 0.01 0.01 0.01 85 1018.9
20210120010052 21 252 2.0 8.0 0.01 0.01 0.01 81 1018.7
20210120004526 22 308 3.0 9.0 0.01 0.01 0.01 80 1018.6
20210120003021 22 298 4.0 8.0 0.00 0.00 0.00 78 1018.6
20210120001519 22 248 3.0 8.0 0.00 0.00 0.00 80 1018.5
20210120000029 22 223 3.0 9.0 0.00 0.00 0.00 76 1018.7
20210119234522 22 209 1.0 4.0 0.00 0.00 0.00 75 1018.6
20210119233030 22 228 2.0 5.0 0.00 0.00 0.00 75 1018.6
20210119231521 22 215 0.0 3.0 0.00 0.00 0.00 75 1018.7
20210119230023 22 189 0.0 3.0 0.00 0.00 0.00 75 1018.7
20210119224524 22 239 0.0 3.0 0.00 0.00 0.00 75 1018.7
20210119223114 22 256 2.0 8.0 0.00 0.00 0.00 72 1018.6
20210119221701 22 190 1.0 5.0 0.00 0.00 0.00 73 1018.5
20210119220124 22 252 4.0 10.0 0.00 0.00 0.00 71 1018.4
20210119214633 22 290 5.0 11.0 0.00 0.00 0.00 74 1018.6
20210119213152 22 288 4.0 14.0 0.00 0.00 0.00 76 1018.6
20210119211730 22 242 4.0 10.0 0.00 0.00 0.00 76 1018.6
20210119210306 22 252 5.0 11.0 0.00 0.00 0.00 76 1018.6
20210119204623 22 263 3.0 8.0 0.00 0.00 0.00 77 1018.5
20210119203059 22 265 4.0 14.0 0.00 0.00 0.00 78 1018.4
20210119201624 23 276 5.0 10.0 0.00 0.00 0.00 74 1018.2
20210119200138 23 225 3.0 14.0 0.00 0.00 0.00 73 1018.1
20210119194627 23 240 7.0 16.0 0.00 0.00 0.00 74 1017.9
20210119193134 23 244 3.0 12.0 0.00 0.00 0.00 72 1017.9
20210119191625 23 236 2.0 13.0 0.00 0.00 0.00 75 1017.8
20210119190111 23 228 3.0 11.0 0.00 0.01 0.00 78 1017.9
20210119184629 23 280 4.0 11.0 0.00 0.01 0.00 78 1017.8
20210119183052 23 235 7.0 13.0 0.00 0.01 0.00 73 1017.8
20210119181633 24 270 1.0 16.0 0.00 0.01 0.00 75 1017.8
20210119180130 24 233 7.0 13.0 0.00 0.01 0.00 73 1017.8
20210119174538 23 211 7.0 15.0 0.00 0.01 0.00 75 1017.7
20210119173129 24 317 5.0 11.0 0.00 0.01 0.00 76 1017.7
20210119171609 24 244 6.0 14.0 0.00 0.01 0.00 79 1017.8